Lucy Reinauer — WCX8054 — position and weather

sailwx.info

Track history (hours):
 
Tides and Currents Weather Stations Pressure Air Temp Water Temp Dewpoint Dewpoint Depression Visibility Wind Speed Wind Dir Waves Ship Positions

Lucy Reinauer

Owner: REINAUER TRANSPORTATION CO. LLC, STATEN ISLAND, NY. More information available from US FCC via Universal Licensing System and Coast Guard Vessel Documentation Center.

Last reported at 2018-Jun-25 09:20 UTC. Time now 2018-Jun-25 15:55 UTC.
Position N 41°08' W 072°33'.

Length 128 m; draft 6.6 m.

Type: Tug. MMSI: 366926920.

Date/timePositionNaut miles runAvg speedWind from/ knotsBaromVisibWave heightAir tempDewpointWater temp
2018-Jun-25 09:20N 41°08' W 072°33'410.6
2018-Jun-25 08:55N 41°10' W 072°27'4 9.8
2018-Jun-25 08:30N 41°11' W 072°22'5 8.6
2018-Jun-25 07:59N 41°12' W 072°16'6 7.9
2018-Jun-25 07:11N 41°13' W 072°08'0 0.0
2018-Jun-24 03:15N 41°14' W 072°08'311.7
2018-Jun-24 03:00N 41°13' W 072°12'610.9
2018-Jun-24 02:28N 41°11' W 072°19'510.4
2018-Jun-24 02:00N 41°10' W 072°25'5 9.4
2018-Jun-24 01:30N 41°09' W 072°31'5 9.0
2018-Jun-24 01:00N 41°08' W 072°37'4 8.9
2018-Jun-24 00:30N 41°06' W 072°43'4 8.7
2018-Jun-24 00:00N 41°05' W 072°48'56 8.1
2018-Jun-23 17:10N 40°46' W 073°57'1 6.8
2018-Jun-23 17:00N 40°45' W 073°58'3 5.8
2018-Jun-23 16:30N 40°42' W 073°60'3 6.8
2018-Jun-23 16:00N 40°40' W 074°03'2 4.8
2018-Jun-23 15:30N 40°38' W 074°04'0 0.7
2018-Jun-23 15:01N 40°38' W 074°04'3 5.1
2018-Jun-23 14:26N 40°38' W 074°08'0 0.0
2018-Jun-23 13:56N 40°38' W 074°08'0 0.0
2018-Jun-23 13:30N 40°38' W 074°08'2 3.5
2018-Jun-23 12:59N 40°39' W 074°05'0 0.0
2018-Jun-23 12:29N 40°39' W 074°05'0 0.0
2018-Jun-23 11:59N 40°39' W 074°05'0 0.0
2018-Jun-23 11:29N 40°39' W 074°05'0 0.0
2018-Jun-23 10:42N 40°39' W 074°05'1 7.6
2018-Jun-23 10:30N 40°39' W 074°04'2 3.8
2018-Jun-23 09:58N 40°40' W 074°01'0 0.0
2018-Jun-23 09:28N 40°40' W 074°01'0 0.0
2018-Jun-23 08:58N 40°40' W 074°01'0 0.0
2018-Jun-23 08:28N 40°40' W 074°01'0 0.0
2018-Jun-23 07:58N 40°40' W 074°01'0 0.0
2018-Jun-23 07:28N 40°40' W 074°01'0 0.0
2018-Jun-23 06:58N 40°40' W 074°01'0 0.0
2018-Jun-23 06:28N 40°40' W 074°01'0 0.0
2018-Jun-23 05:58N 40°40' W 074°01'0 0.0
2018-Jun-23 05:28N 40°40' W 074°01'0 0.0
2018-Jun-23 04:58N 40°40' W 074°01'0 0.0
2018-Jun-23 04:28N 40°40' W 074°01'0 0.0
2018-Jun-23 03:58N 40°40' W 074°01'0 0.0
2018-Jun-23 03:28N 40°40' W 074°01'0 0.0
2018-Jun-23 02:58N 40°40' W 074°01'0 0.0
2018-Jun-23 02:25N 40°40' W 074°01'0 0.0
2018-Jun-23 01:58N 40°40' W 074°01'0 0.0
2018-Jun-23 01:28N 40°40' W 074°01'0 0.0
2018-Jun-23 00:58N 40°40' W 074°01'0 0.0
2018-Jun-23 00:28N 40°40' W 074°01'0 0.0
2018-Jun-22 23:58N 40°40' W 074°01'0 0.0
2018-Jun-22 23:28N 40°40' W 074°01'0 0.0
2018-Jun-22 22:58N 40°40' W 074°01'0 0.0
2018-Jun-22 22:28N 40°40' W 074°01'0 0.0
2018-Jun-22 21:58N 40°40' W 074°01'0 0.0
2018-Jun-22 21:28N 40°40' W 074°01'0 0.0
2018-Jun-22 20:58N 40°40' W 074°01'0 0.0
2018-Jun-22 20:28N 40°40' W 074°01'0 0.0
2018-Jun-22 19:58N 40°40' W 074°01'0 0.0
2018-Jun-22 19:28N 40°40' W 074°01'0 0.0
2018-Jun-22 18:58N 40°40' W 074°01'0 0.0
2018-Jun-22 18:28N 40°40' W 074°01'0 0.0
2018-Jun-22 17:58N 40°40' W 074°01'0 0.0
2018-Jun-22 17:28N 40°40' W 074°01'0 0.0
2018-Jun-22 17:00N 40°40' W 074°01'0 0.3
2018-Jun-22 16:28N 40°40' W 074°01'0 0.0
2018-Jun-22 15:58N 40°40' W 074°01'0 0.0
2018-Jun-22 15:28N 40°40' W 074°01'0 0.0
2018-Jun-22 14:58N 40°40' W 074°01'0 0.0
2018-Jun-22 14:28N 40°40' W 074°01'0 0.0
2018-Jun-22 13:58N 40°40' W 074°01'0 0.0
2018-Jun-22 13:28N 40°40' W 074°01'0 0.0
2018-Jun-22 12:58N 40°40' W 074°01'0 0.0
2018-Jun-22 12:28N 40°40' W 074°01'0 0.0
2018-Jun-22 11:58N 40°40' W 074°01'0 0.0
2018-Jun-22 11:28N 40°40' W 074°01'0 0.0
2018-Jun-22 10:58N 40°40' W 074°01'0 0.0
2018-Jun-22 10:28N 40°40' W 074°01'0 0.0
2018-Jun-22 09:58N 40°40' W 074°01'0 0.0
2018-Jun-22 09:28N 40°40' W 074°01'0 0.0
2018-Jun-22 08:58N 40°40' W 074°01'0 0.0
2018-Jun-22 08:28N 40°40' W 074°01'0 0.0
2018-Jun-22 07:58N 40°40' W 074°01'0 0.0
2018-Jun-22 07:28N 40°40' W 074°01'0 0.1
2018-Jun-22 06:58N 40°40' W 074°01'0 0.0
2018-Jun-22 06:28N 40°40' W 074°01'0 0.0
2018-Jun-22 05:58N 40°40' W 074°01'0 0.0
2018-Jun-22 05:28N 40°40' W 074°01'0 0.0
2018-Jun-22 04:58N 40°40' W 074°01'0 0.0
2018-Jun-22 04:28N 40°40' W 074°01'0 0.0
2018-Jun-22 03:58N 40°40' W 074°01'0 0.0
2018-Jun-22 03:28N 40°40' W 074°01'0 0.0
2018-Jun-22 02:58N 40°40' W 074°01'0 0.0
2018-Jun-22 02:28N 40°40' W 074°01'0 0.0
2018-Jun-22 01:58N 40°40' W 074°01'0 0.0
2018-Jun-22 01:28N 40°40' W 074°01'0 0.0
2018-Jun-22 00:58N 40°40' W 074°01'0 0.0
2018-Jun-22 00:28N 40°40' W 074°01'0 0.0
2018-Jun-21 23:58N 40°40' W 074°01'0 0.0
2018-Jun-21 23:28N 40°40' W 074°01'0 0.0
2018-Jun-21 22:58N 40°40' W 074°01'0 0.0
2018-Jun-21 22:28N 40°40' W 074°01'0 0.0
2018-Jun-21 21:58N 40°40' W 074°01'0 0.0
2018-Jun-21 21:28N 40°40' W 074°01'0 0.0
2018-Jun-21 20:58N 40°40' W 074°01'0 0.0
2018-Jun-21 20:28N 40°40' W 074°01'0 0.0
2018-Jun-21 19:58N 40°40' W 074°01'0 0.0
2018-Jun-21 19:28N 40°40' W 074°01'0 0.0
2018-Jun-21 18:58N 40°40' W 074°01'0 0.0
2018-Jun-21 18:28N 40°40' W 074°01'0 0.0
2018-Jun-21 17:58N 40°40' W 074°01'0 0.0
2018-Jun-21 17:28N 40°40' W 074°01'0 0.0
2018-Jun-21 16:58N 40°40' W 074°01'0 0.0
2018-Jun-21 16:28N 40°40' W 074°01'0 0.0
2018-Jun-21 15:58N 40°40' W 074°01'0 0.0
2018-Jun-21 15:28N 40°40' W 074°01'0 0.0
2018-Jun-21 14:58N 40°40' W 074°01'0 0.0
2018-Jun-21 14:28N 40°40' W 074°01'0 0.2
2018-Jun-21 13:59N 40°40' W 074°01'0 0.1
2018-Jun-21 13:29N 40°40' W 074°01'0 0.1
2018-Jun-21 12:59N 40°40' W 074°01'0 0.0
2018-Jun-21 12:29N 40°40' W 074°01'0 0.0
2018-Jun-21 11:59N 40°40' W 074°01'0 0.0
2018-Jun-21 11:29N 40°40' W 074°01'0 0.0
2018-Jun-21 10:56N 40°40' W 074°01'0 0.0
2018-Jun-21 10:29N 40°40' W 074°01'0 0.0
2018-Jun-21 09:59N 40°40' W 074°01'0 0.0
2018-Jun-21 09:29N 40°40' W 074°01'0 0.0
2018-Jun-21 08:59N 40°40' W 074°01'0 0.0
2018-Jun-21 08:29N 40°40' W 074°01'0 0.0
2018-Jun-21 07:59N 40°40' W 074°01'0 0.0
2018-Jun-21 07:29N 40°40' W 074°01'0 0.0
2018-Jun-21 06:58N 40°40' W 074°01'0 0.0
2018-Jun-21 06:29N 40°40' W 074°01'0 0.0
2018-Jun-21 05:59N 40°40' W 074°01'0 0.0
2018-Jun-21 05:28N 40°40' W 074°01'0 0.0
2018-Jun-21 04:59N 40°40' W 074°01'0 0.0
2018-Jun-21 04:29N 40°40' W 074°01'0 0.0
2018-Jun-21 03:58N 40°40' W 074°01'0 0.0
2018-Jun-21 03:29N 40°40' W 074°01'0 0.0
2018-Jun-21 02:59N 40°40' W 074°01'0 0.0
2018-Jun-21 02:28N 40°40' W 074°01'0 0.0
2018-Jun-21 01:55N 40°40' W 074°01'0 0.0
2018-Jun-21 01:28N 40°40' W 074°01'0 0.0
2018-Jun-21 00:59N 40°40' W 074°01'0 0.0
2018-Jun-21 00:28N 40°40' W 074°01'0 0.0
2018-Jun-20 23:58N 40°40' W 074°01'0 0.0
2018-Jun-20 23:29N 40°40' W 074°01'0 0.0
2018-Jun-20 22:58N 40°40' W 074°01'0 0.0
2018-Jun-20 22:29N 40°40' W 074°01'0 0.0
2018-Jun-20 21:58N 40°40' W 074°01'0 0.0
2018-Jun-20 21:29N 40°40' W 074°01'0 0.0
2018-Jun-20 20:59N 40°40' W 074°01'0 0.0
2018-Jun-20 20:28N 40°40' W 074°01'0 0.0
2018-Jun-20 19:59N 40°40' W 074°01'0 0.0
2018-Jun-20 19:29N 40°40' W 074°01'0 0.0
2018-Jun-20 18:58N 40°40' W 074°01'0 0.0
2018-Jun-20 18:28N 40°40' W 074°01'0 0.0
2018-Jun-20 17:58N 40°40' W 074°01'0 0.0
2018-Jun-20 17:29N 40°40' W 074°01'0 0.0
2018-Jun-20 16:58N 40°40' W 074°01'0 0.0
2018-Jun-20 16:28N 40°40' W 074°01'0 0.0
2018-Jun-20 15:58N 40°40' W 074°01'0 0.0
2018-Jun-20 15:29N 40°40' W 074°01'0 0.0
2018-Jun-20 14:58N 40°40' W 074°01'0 0.0
2018-Jun-20 14:28N 40°40' W 074°01'0 0.0
2018-Jun-20 13:58N 40°40' W 074°01'0 0.0
2018-Jun-20 13:30N 40°40' W 074°01'0 0.2
2018-Jun-20 12:59N 40°40' W 074°01'0 0.1
2018-Jun-20 12:29N 40°40' W 074°01'0 0.0
2018-Jun-20 11:59N 40°40' W 074°01'0 0.0
2018-Jun-20 11:29N 40°40' W 074°01'0 0.0
2018-Jun-20 10:59N 40°40' W 074°01'0 0.0
2018-Jun-20 10:29N 40°40' W 074°01'0 0.0
2018-Jun-20 09:59N 40°40' W 074°01'0 0.0
2018-Jun-20 09:29N 40°40' W 074°01'0 0.0
2018-Jun-20 08:59N 40°40' W 074°01'0 0.0
2018-Jun-20 08:29N 40°40' W 074°01'0 0.0
2018-Jun-20 07:59N 40°40' W 074°01'0 0.0
2018-Jun-20 07:29N 40°40' W 074°01'0 0.0
2018-Jun-20 06:59N 40°40' W 074°01'0 0.0
2018-Jun-20 06:29N 40°40' W 074°01'0 0.0
2018-Jun-20 05:59N 40°40' W 074°01'0 0.0
2018-Jun-20 05:29N 40°40' W 074°01'0 0.0
2018-Jun-20 04:59N 40°40' W 074°01'0 0.0
2018-Jun-20 04:29N 40°40' W 074°01'0 0.0
2018-Jun-20 03:59N 40°40' W 074°01'0 0.0
2018-Jun-20 03:29N 40°40' W 074°01'0 0.0
2018-Jun-20 02:59N 40°40' W 074°01'0 0.0
2018-Jun-20 02:29N 40°40' W 074°01'0 0.0
2018-Jun-20 01:59N 40°40' W 074°01'0 0.4
2018-Jun-20 01:30N 40°40' W 074°01'0 0.3
2018-Jun-20 01:00N 40°40' W 074°01'4 7.9
2018-Jun-20 00:30N 40°44' W 074°01'712.9
2018-Jun-19 23:57N 40°51' W 073°57'0 0.0
2018-Jun-18 07:13N 40°51' W 073°57'4 9.8
2018-Jun-18 06:49N 40°47' W 073°59'310.0
2018-Jun-18 06:30N 40°45' W 074°01'5 9.8
2018-Jun-18 06:00N 40°40' W 074°03'4 8.9
2018-Jun-18 05:30N 40°39' W 074°08'3 0.1
2018-Jun-17 04:15N 40°37' W 074°12'2 5.9
2018-Jun-17 04:00N 40°38' W 074°12'4 7.4
2018-Jun-17 03:30N 40°39' W 074°07'4 8.6
2018-Jun-17 03:00N 40°41' W 074°02'1 1.6
2018-Jun-17 02:30N 40°40' W 074°01'0 0.0
2018-Jun-17 02:00N 40°40' W 074°01'0 0.3
2018-Jun-17 01:30N 40°40' W 074°01'0 0.3
2018-Jun-17 01:00N 40°40' W 074°01'1 3.0
2018-Jun-17 00:30N 40°39' W 074°03'1 1.1
2018-Jun-17 00:00N 40°39' W 074°03'3 6.9
2018-Jun-16 23:30N 40°39' W 074°08'9 0.6
2018-Jun-16 08:50N 40°32' W 074°15'  
Track history (hours):
 
Tides and Currents Weather Stations Pressure Air Temp Water Temp Dewpoint Dewpoint Depression Visibility Wind Speed Wind Dir Waves Ship Positions

Lucy Reinauer

Owner: REINAUER TRANSPORTATION CO. LLC, STATEN ISLAND, NY. More information available from US FCC via Universal Licensing System and Coast Guard Vessel Documentation Center.

Last reported at 2018-Jun-25 09:20 UTC. Time now 2018-Jun-25 15:55 UTC.
Position N 41°08' W 072°33'.

Length 128 m; draft 6.6 m.

Type: Tug. MMSI: 366926920.

Date/timePositionNaut miles runAvg speedWind from/ knotsBaromVisibWave heightAir tempDewpointWater temp
2018-Jun-25 09:20N 41°08' W 072°33'410.6
2018-Jun-25 08:55N 41°10' W 072°27'4 9.8
2018-Jun-25 08:30N 41°11' W 072°22'5 8.6
2018-Jun-25 07:59N 41°12' W 072°16'6 7.9
2018-Jun-25 07:11N 41°13' W 072°08'0 0.0
2018-Jun-24 03:15N 41°14' W 072°08'311.7
2018-Jun-24 03:00N 41°13' W 072°12'610.9
2018-Jun-24 02:28N 41°11' W 072°19'510.4
2018-Jun-24 02:00N 41°10' W 072°25'5 9.4
2018-Jun-24 01:30N 41°09' W 072°31'5 9.0
2018-Jun-24 01:00N 41°08' W 072°37'4 8.9
2018-Jun-24 00:30N 41°06' W 072°43'4 8.7
2018-Jun-24 00:00N 41°05' W 072°48'56 8.1
2018-Jun-23 17:10N 40°46' W 073°57'1 6.8
2018-Jun-23 17:00N 40°45' W 073°58'3 5.8
2018-Jun-23 16:30N 40°42' W 073°60'3 6.8
2018-Jun-23 16:00N 40°40' W 074°03'2 4.8
2018-Jun-23 15:30N 40°38' W 074°04'0 0.7
2018-Jun-23 15:01N 40°38' W 074°04'3 5.1
2018-Jun-23 14:26N 40°38' W 074°08'0 0.0
2018-Jun-23 13:56N 40°38' W 074°08'0 0.0
2018-Jun-23 13:30N 40°38' W 074°08'2 3.5
2018-Jun-23 12:59N 40°39' W 074°05'0 0.0
2018-Jun-23 12:29N 40°39' W 074°05'0 0.0
2018-Jun-23 11:59N 40°39' W 074°05'0 0.0
2018-Jun-23 11:29N 40°39' W 074°05'0 0.0
2018-Jun-23 10:42N 40°39' W 074°05'1 7.6
2018-Jun-23 10:30N 40°39' W 074°04'2 3.8
2018-Jun-23 09:58N 40°40' W 074°01'0 0.0
2018-Jun-23 09:28N 40°40' W 074°01'0 0.0
2018-Jun-23 08:58N 40°40' W 074°01'0 0.0
2018-Jun-23 08:28N 40°40' W 074°01'0 0.0
2018-Jun-23 07:58N 40°40' W 074°01'0 0.0
2018-Jun-23 07:28N 40°40' W 074°01'0 0.0
2018-Jun-23 06:58N 40°40' W 074°01'0 0.0
2018-Jun-23 06:28N 40°40' W 074°01'0 0.0
2018-Jun-23 05:58N 40°40' W 074°01'0 0.0
2018-Jun-23 05:28N 40°40' W 074°01'0 0.0
2018-Jun-23 04:58N 40°40' W 074°01'0 0.0
2018-Jun-23 04:28N 40°40' W 074°01'0 0.0
2018-Jun-23 03:58N 40°40' W 074°01'0 0.0
2018-Jun-23 03:28N 40°40' W 074°01'0 0.0
2018-Jun-23 02:58N 40°40' W 074°01'0 0.0
2018-Jun-23 02:25N 40°40' W 074°01'0 0.0
2018-Jun-23 01:58N 40°40' W 074°01'0 0.0
2018-Jun-23 01:28N 40°40' W 074°01'0 0.0
2018-Jun-23 00:58N 40°40' W 074°01'0 0.0
2018-Jun-23 00:28N 40°40' W 074°01'0 0.0
2018-Jun-22 23:58N 40°40' W 074°01'0 0.0
2018-Jun-22 23:28N 40°40' W 074°01'0 0.0
2018-Jun-22 22:58N 40°40' W 074°01'0 0.0
2018-Jun-22 22:28N 40°40' W 074°01'0 0.0
2018-Jun-22 21:58N 40°40' W 074°01'0 0.0
2018-Jun-22 21:28N 40°40' W 074°01'0 0.0
2018-Jun-22 20:58N 40°40' W 074°01'0 0.0
2018-Jun-22 20:28N 40°40' W 074°01'0 0.0
2018-Jun-22 19:58N 40°40' W 074°01'0 0.0
2018-Jun-22 19:28N 40°40' W 074°01'0 0.0
2018-Jun-22 18:58N 40°40' W 074°01'0 0.0
2018-Jun-22 18:28N 40°40' W 074°01'0 0.0
2018-Jun-22 17:58N 40°40' W 074°01'0 0.0
2018-Jun-22 17:28N 40°40' W 074°01'0 0.0
2018-Jun-22 17:00N 40°40' W 074°01'0 0.3
2018-Jun-22 16:28N 40°40' W 074°01'0 0.0
2018-Jun-22 15:58N 40°40' W 074°01'0 0.0
2018-Jun-22 15:28N 40°40' W 074°01'0 0.0
2018-Jun-22 14:58N 40°40' W 074°01'0 0.0
2018-Jun-22 14:28N 40°40' W 074°01'0 0.0
2018-Jun-22 13:58N 40°40' W 074°01'0 0.0
2018-Jun-22 13:28N 40°40' W 074°01'0 0.0
2018-Jun-22 12:58N 40°40' W 074°01'0 0.0
2018-Jun-22 12:28N 40°40' W 074°01'0 0.0
2018-Jun-22 11:58N 40°40' W 074°01'0 0.0
2018-Jun-22 11:28N 40°40' W 074°01'0 0.0
2018-Jun-22 10:58N 40°40' W 074°01'0 0.0
2018-Jun-22 10:28N 40°40' W 074°01'0 0.0
2018-Jun-22 09:58N 40°40' W 074°01'0 0.0
2018-Jun-22 09:28N 40°40' W 074°01'0 0.0
2018-Jun-22 08:58N 40°40' W 074°01'0 0.0
2018-Jun-22 08:28N 40°40' W 074°01'0 0.0
2018-Jun-22 07:58N 40°40' W 074°01'0 0.0
2018-Jun-22 07:28N 40°40' W 074°01'0 0.1
2018-Jun-22 06:58N 40°40' W 074°01'0 0.0
2018-Jun-22 06:28N 40°40' W 074°01'0 0.0
2018-Jun-22 05:58N 40°40' W 074°01'0 0.0
2018-Jun-22 05:28N 40°40' W 074°01'0 0.0
2018-Jun-22 04:58N 40°40' W 074°01'0 0.0
2018-Jun-22 04:28N 40°40' W 074°01'0 0.0
2018-Jun-22 03:58N 40°40' W 074°01'0 0.0
2018-Jun-22 03:28N 40°40' W 074°01'0 0.0
2018-Jun-22 02:58N 40°40' W 074°01'0 0.0
2018-Jun-22 02:28N 40°40' W 074°01'0 0.0
2018-Jun-22 01:58N 40°40' W 074°01'0 0.0
2018-Jun-22 01:28N 40°40' W 074°01'0 0.0
2018-Jun-22 00:58N 40°40' W 074°01'0 0.0
2018-Jun-22 00:28N 40°40' W 074°01'0 0.0
2018-Jun-21 23:58N 40°40' W 074°01'0 0.0
2018-Jun-21 23:28N 40°40' W 074°01'0 0.0
2018-Jun-21 22:58N 40°40' W 074°01'0 0.0
2018-Jun-21 22:28N 40°40' W 074°01'0 0.0
2018-Jun-21 21:58N 40°40' W 074°01'0 0.0
2018-Jun-21 21:28N 40°40' W 074°01'0 0.0
2018-Jun-21 20:58N 40°40' W 074°01'0 0.0
2018-Jun-21 20:28N 40°40' W 074°01'0 0.0
2018-Jun-21 19:58N 40°40' W 074°01'0 0.0
2018-Jun-21 19:28N 40°40' W 074°01'0 0.0
2018-Jun-21 18:58N 40°40' W 074°01'0 0.0
2018-Jun-21 18:28N 40°40' W 074°01'0 0.0
2018-Jun-21 17:58N 40°40' W 074°01'0 0.0
2018-Jun-21 17:28N 40°40' W 074°01'0 0.0
2018-Jun-21 16:58N 40°40' W 074°01'0 0.0
2018-Jun-21 16:28N 40°40' W 074°01'0 0.0
2018-Jun-21 15:58N 40°40' W 074°01'0 0.0
2018-Jun-21 15:28N 40°40' W 074°01'0 0.0
2018-Jun-21 14:58N 40°40' W 074°01'0 0.0
2018-Jun-21 14:28N 40°40' W 074°01'0 0.2
2018-Jun-21 13:59N 40°40' W 074°01'0 0.1
2018-Jun-21 13:29N 40°40' W 074°01'0 0.1
2018-Jun-21 12:59N 40°40' W 074°01'0 0.0
2018-Jun-21 12:29N 40°40' W 074°01'0 0.0
2018-Jun-21 11:59N 40°40' W 074°01'0 0.0
2018-Jun-21 11:29N 40°40' W 074°01'0 0.0
2018-Jun-21 10:56N 40°40' W 074°01'0 0.0
2018-Jun-21 10:29N 40°40' W 074°01'0 0.0
2018-Jun-21 09:59N 40°40' W 074°01'0 0.0
2018-Jun-21 09:29N 40°40' W 074°01'0 0.0
2018-Jun-21 08:59N 40°40' W 074°01'0 0.0
2018-Jun-21 08:29N 40°40' W 074°01'0 0.0
2018-Jun-21 07:59N 40°40' W 074°01'0 0.0
2018-Jun-21 07:29N 40°40' W 074°01'0 0.0
2018-Jun-21 06:58N 40°40' W 074°01'0 0.0
2018-Jun-21 06:29N 40°40' W 074°01'0 0.0
2018-Jun-21 05:59N 40°40' W 074°01'0 0.0
2018-Jun-21 05:28N 40°40' W 074°01'0 0.0
2018-Jun-21 04:59N 40°40' W 074°01'0 0.0
2018-Jun-21 04:29N 40°40' W 074°01'0 0.0
2018-Jun-21 03:58N 40°40' W 074°01'0 0.0
2018-Jun-21 03:29N 40°40' W 074°01'0 0.0
2018-Jun-21 02:59N 40°40' W 074°01'0 0.0
2018-Jun-21 02:28N 40°40' W 074°01'0 0.0
2018-Jun-21 01:55N 40°40' W 074°01'0 0.0
2018-Jun-21 01:28N 40°40' W 074°01'0 0.0
2018-Jun-21 00:59N 40°40' W 074°01'0 0.0
2018-Jun-21 00:28N 40°40' W 074°01'0 0.0
2018-Jun-20 23:58N 40°40' W 074°01'0 0.0
2018-Jun-20 23:29N 40°40' W 074°01'0 0.0
2018-Jun-20 22:58N 40°40' W 074°01'0 0.0
2018-Jun-20 22:29N 40°40' W 074°01'0 0.0
2018-Jun-20 21:58N 40°40' W 074°01'0 0.0
2018-Jun-20 21:29N 40°40' W 074°01'0 0.0
2018-Jun-20 20:59N 40°40' W 074°01'0 0.0
2018-Jun-20 20:28N 40°40' W 074°01'0 0.0
2018-Jun-20 19:59N 40°40' W 074°01'0 0.0
2018-Jun-20 19:29N 40°40' W 074°01'0 0.0
2018-Jun-20 18:58N 40°40' W 074°01'0 0.0
2018-Jun-20 18:28N 40°40' W 074°01'0 0.0
2018-Jun-20 17:58N 40°40' W 074°01'0 0.0
2018-Jun-20 17:29N 40°40' W 074°01'0 0.0
2018-Jun-20 16:58N 40°40' W 074°01'0 0.0
2018-Jun-20 16:28N 40°40' W 074°01'0 0.0
2018-Jun-20 15:58N 40°40' W 074°01'0 0.0
2018-Jun-20 15:29N 40°40' W 074°01'0 0.0
2018-Jun-20 14:58N 40°40' W 074°01'0 0.0
2018-Jun-20 14:28N 40°40' W 074°01'0 0.0
2018-Jun-20 13:58N 40°40' W 074°01'0 0.0
2018-Jun-20 13:30N 40°40' W 074°01'0 0.2
2018-Jun-20 12:59N 40°40' W 074°01'0 0.1
2018-Jun-20 12:29N 40°40' W 074°01'0 0.0
2018-Jun-20 11:59N 40°40' W 074°01'0 0.0
2018-Jun-20 11:29N 40°40' W 074°01'0 0.0
2018-Jun-20 10:59N 40°40' W 074°01'0 0.0
2018-Jun-20 10:29N 40°40' W 074°01'0 0.0
2018-Jun-20 09:59N 40°40' W 074°01'0 0.0
2018-Jun-20 09:29N 40°40' W 074°01'0 0.0
2018-Jun-20 08:59N 40°40' W 074°01'0 0.0
2018-Jun-20 08:29N 40°40' W 074°01'0 0.0
2018-Jun-20 07:59N 40°40' W 074°01'0 0.0
2018-Jun-20 07:29N 40°40' W 074°01'0 0.0
2018-Jun-20 06:59N 40°40' W 074°01'0 0.0
2018-Jun-20 06:29N 40°40' W 074°01'0 0.0
2018-Jun-20 05:59N 40°40' W 074°01'0 0.0
2018-Jun-20 05:29N 40°40' W 074°01'0 0.0
2018-Jun-20 04:59N 40°40' W 074°01'0 0.0
2018-Jun-20 04:29N 40°40' W 074°01'0 0.0
2018-Jun-20 03:59N 40°40' W 074°01'0 0.0
2018-Jun-20 03:29N 40°40' W 074°01'0 0.0
2018-Jun-20 02:59N 40°40' W 074°01'0 0.0
2018-Jun-20 02:29N 40°40' W 074°01'0 0.0
2018-Jun-20 01:59N 40°40' W 074°01'0 0.4
2018-Jun-20 01:30N 40°40' W 074°01'0 0.3
2018-Jun-20 01:00N 40°40' W 074°01'4 7.9
2018-Jun-20 00:30N 40°44' W 074°01'712.9
2018-Jun-19 23:57N 40°51' W 073°57'0 0.0
2018-Jun-18 07:13N 40°51' W 073°57'4 9.8
2018-Jun-18 06:49N 40°47' W 073°59'310.0
2018-Jun-18 06:30N 40°45' W 074°01'5 9.8
2018-Jun-18 06:00N 40°40' W 074°03'4 8.9
2018-Jun-18 05:30N 40°39' W 074°08'3 0.1
2018-Jun-17 04:15N 40°37' W 074°12'2 5.9
2018-Jun-17 04:00N 40°38' W 074°12'4 7.4
2018-Jun-17 03:30N 40°39' W 074°07'4 8.6
2018-Jun-17 03:00N 40°41' W 074°02'1 1.6
2018-Jun-17 02:30N 40°40' W 074°01'0 0.0
2018-Jun-17 02:00N 40°40' W 074°01'0 0.3
2018-Jun-17 01:30N 40°40' W 074°01'0 0.3
2018-Jun-17 01:00N 40°40' W 074°01'1 3.0
2018-Jun-17 00:30N 40°39' W 074°03'1 1.1
2018-Jun-17 00:00N 40°39' W 074°03'3 6.9
2018-Jun-16 23:30N 40°39' W 074°08'9 0.6
2018-Jun-16 08:50N 40°32' W 074°15'  

Dump ship's entire track history